Weather at Area De Material Airport

Public forecast

Using degrees Celsius for public forecast. Weather courtesy of forecast.io.

Current aviation weather report (METAR) for Area De Material Airport

Retrieved 2022/06/28 12:00 UTC (12 minutes ago):

SAOC 281200Z 32004KT CAVOK 08/04 Q1020

Aviation forecast (TAF) for Area De Material Airport

Forecast is more than 12 hours old.

Retrieved 2022/05/30 12:45 UTC (29 days ago):

TAF COR SAOC 301100Z 3012/3112 VRB03KT 9999 SCT040 TX12/3018Z TN01/3111Z BECMG 3109/3112 02010KT 9999 SCT035